createdAt,value
2023-03-03T00:02:05.937Z,0.37
2023-03-03T00:04:32.318Z,-0.38
2023-03-03T00:06:58.683Z,-1.08
2023-03-03T00:09:25.024Z,-0.46
2023-03-03T00:11:56.040Z,-0.25
2023-03-03T00:14:28.563Z,-0.65
2023-03-03T00:16:56.545Z,-0.14
2023-03-03T00:19:23.416Z,-0.30
2023-03-03T00:21:51.455Z,-0.31
2023-03-03T00:24:24.418Z,-0.11
2023-03-03T00:26:56.141Z,-0.15
2023-03-03T00:29:45.722Z,-0.44
2023-03-03T00:32:12.076Z,-0.56
2023-03-03T00:34:38.458Z,-0.60
2023-03-03T00:37:27.759Z,-0.32
2023-03-03T00:39:58.571Z,-0.63
2023-03-03T00:42:27.716Z,-0.60
2023-03-03T00:45:37.290Z,-0.54
2023-03-03T00:48:29.978Z,-0.39
2023-03-03T00:50:58.669Z,-0.80
2023-03-03T00:53:30.279Z,-0.58
2023-03-03T00:55:57.417Z,-1.05
2023-03-03T00:58:24.740Z,-1.37
2023-03-03T01:00:53.705Z,-1.06
2023-03-03T01:03:22.760Z,-0.63
2023-03-03T01:05:49.827Z,-0.72
2023-03-03T01:08:16.557Z,-0.69
2023-03-03T01:10:50.966Z,-0.50
2023-03-03T01:13:20.612Z,-0.94
2023-03-03T01:15:47.043Z,-1.09
2023-03-03T01:18:14.227Z,-1.10
2023-03-03T01:20:41.435Z,-0.99
2023-03-03T01:23:08.391Z,-1.03
2023-03-03T01:25:35.076Z,-1.22
2023-03-03T01:28:01.450Z,-0.76
2023-03-03T01:30:27.864Z,-0.97
2023-03-03T01:32:54.440Z,-1.09
2023-03-03T01:35:21.185Z,-1.11
2023-03-03T01:37:47.641Z,-0.93
2023-03-03T01:40:23.678Z,-0.82
2023-03-03T01:42:50.085Z,-1.00
2023-03-03T01:45:26.291Z,-1.24
2023-03-03T01:48:06.402Z,-0.96
2023-03-03T01:50:47.773Z,-0.83
2023-03-03T01:53:23.925Z,-1.01
2023-03-03T01:55:51.957Z,-1.15
2023-03-03T01:58:46.814Z,-1.42
2023-03-03T02:01:20.789Z,-1.28
2023-03-03T02:03:48.385Z,-1.17
2023-03-03T02:06:18.292Z,-1.03
2023-03-03T02:08:53.622Z,-1.10
2023-03-03T02:11:21.578Z,-1.15
2023-03-03T02:13:48.144Z,-1.29
2023-03-03T02:16:15.012Z,-1.24
2023-03-03T02:18:41.403Z,-1.28
2023-03-03T02:21:14.353Z,-1.13
2023-03-03T02:24:27.611Z,-1.49
2023-03-03T02:26:54.131Z,-1.82
2023-03-03T02:29:20.665Z,-1.53
2023-03-03T02:31:47.135Z,-1.97
2023-03-03T02:34:13.551Z,-1.89
2023-03-03T02:36:40.031Z,-1.83
2023-03-03T02:39:10.718Z,-1.43
2023-03-03T02:41:51.317Z,-1.05
2023-03-03T02:44:20.261Z,-1.32
2023-03-03T02:46:48.309Z,-1.22
2023-03-03T02:49:17.160Z,-1.32
2023-03-03T02:51:43.694Z,-2.04
2023-03-03T02:54:12.990Z,-1.80
2023-03-03T02:56:39.978Z,-1.59
2023-03-03T02:59:07.489Z,-1.37
2023-03-03T03:01:37.092Z,-1.45
2023-03-03T03:04:09.402Z,-1.46
2023-03-03T03:06:36.267Z,-1.41
2023-03-03T03:09:03.300Z,-1.32
2023-03-03T03:11:29.712Z,-1.63
2023-03-03T03:13:56.067Z,-1.74
2023-03-03T03:16:22.509Z,-1.92
2023-03-03T03:18:50.614Z,-1.99
2023-03-03T03:21:17.067Z,-1.34
2023-03-03T03:23:43.440Z,-1.65
2023-03-03T03:26:10.102Z,-1.47
2023-03-03T03:28:36.936Z,-2.24
2023-03-03T03:31:05.063Z,-1.76
2023-03-03T03:33:31.509Z,-1.92
2023-03-03T03:35:59.740Z,-1.82
2023-03-03T03:38:27.271Z,-1.84
2023-03-03T03:40:54.383Z,-1.91
2023-03-03T03:43:20.775Z,-1.73
2023-03-03T03:45:47.166Z,-1.71
2023-03-03T03:48:13.814Z,-1.73
2023-03-03T03:50:40.202Z,-1.94
2023-03-03T03:53:07.062Z,-1.72
2023-03-03T03:55:33.734Z,-2.00
2023-03-03T03:58:00.225Z,-1.56
2023-03-03T04:00:26.637Z,-1.47
2023-03-03T04:02:53.098Z,-1.51
2023-03-03T04:05:19.524Z,-2.16
2023-03-03T04:07:45.888Z,-1.75
2023-03-03T04:10:12.472Z,-1.80
2023-03-03T04:12:38.840Z,-1.84
2023-03-03T04:15:13.733Z,-1.75
2023-03-03T04:17:40.420Z,-2.28
2023-03-03T04:20:07.667Z,-2.11
2023-03-03T04:22:35.963Z,-2.03
2023-03-03T04:25:05.119Z,-1.86
2023-03-03T04:27:32.995Z,-1.65
2023-03-03T04:29:59.427Z,-1.71
2023-03-03T04:32:26.246Z,-1.93
2023-03-03T04:35:05.626Z,-2.29
2023-03-03T04:37:34.127Z,-2.07
2023-03-03T04:40:00.685Z,-1.86
2023-03-03T04:42:28.116Z,-1.76
2023-03-03T04:44:54.883Z,-1.98
2023-03-03T04:47:21.250Z,-2.24
2023-03-03T04:49:47.637Z,-2.31
2023-03-03T04:52:14.006Z,-2.08
2023-03-03T04:54:40.525Z,-2.34
2023-03-03T04:57:07.824Z,-2.24
2023-03-03T04:59:34.259Z,-1.81
2023-03-03T05:02:00.633Z,-2.35
2023-03-03T05:04:27.017Z,-1.98
2023-03-03T05:06:53.394Z,-2.04
2023-03-03T05:09:19.779Z,-1.92
2023-03-03T05:11:46.144Z,-1.64
2023-03-03T05:14:12.510Z,-1.87
2023-03-03T05:16:38.866Z,-1.90
2023-03-03T05:19:05.255Z,-1.68
2023-03-03T05:21:31.631Z,-1.72
2023-03-03T05:23:58.011Z,-1.67
2023-03-03T05:26:24.387Z,-2.17
2023-03-03T05:28:50.746Z,-2.10
2023-03-03T05:31:17.178Z,-2.34
2023-03-03T05:33:43.547Z,-2.22
2023-03-03T05:36:09.918Z,-2.07
2023-03-03T05:38:36.283Z,-2.02
2023-03-03T05:41:02.638Z,-2.10
2023-03-03T05:43:29.317Z,-2.10
2023-03-03T05:45:59.046Z,-2.33
2023-03-03T05:48:25.447Z,-2.35
2023-03-03T05:50:52.168Z,-1.97
2023-03-03T05:53:18.595Z,-2.32
2023-03-03T05:55:44.979Z,-2.16
2023-03-03T05:58:12.051Z,-2.57
2023-03-03T06:00:38.586Z,-2.30
2023-03-03T06:03:04.984Z,-2.52
2023-03-03T06:05:31.421Z,-2.54
2023-03-03T06:07:57.857Z,-2.53
2023-03-03T06:10:24.785Z,-2.41
2023-03-03T06:12:51.613Z,-2.35
2023-03-03T06:15:18.273Z,-2.67
2023-03-03T06:17:44.647Z,-2.64
2023-03-03T06:20:11.636Z,-2.22
2023-03-03T06:22:38.026Z,-2.19
2023-03-03T06:25:04.747Z,-2.40
2023-03-03T06:27:31.256Z,-2.45
2023-03-03T06:29:57.670Z,-2.62
2023-03-03T06:32:24.048Z,-2.28
2023-03-03T06:34:50.481Z,-2.26
2023-03-03T06:37:17.041Z,-2.59
2023-03-03T06:39:43.425Z,-2.43
2023-03-03T06:42:09.850Z,-2.46
2023-03-03T06:44:36.353Z,-2.35
2023-03-03T06:47:02.731Z,-2.20
2023-03-03T06:49:29.117Z,-2.45
2023-03-03T06:51:56.388Z,-2.51
2023-03-03T06:54:30.750Z,-2.42
2023-03-03T06:57:08.927Z,-2.19
2023-03-03T06:59:35.298Z,-2.09
2023-03-03T07:02:01.973Z,-1.78
2023-03-03T07:04:31.769Z,-1.88
2023-03-03T07:07:00.166Z,-2.26
2023-03-03T07:09:29.123Z,-1.75
2023-03-03T07:12:06.726Z,-1.83
2023-03-03T07:14:35.145Z,-1.87
2023-03-03T07:17:05.066Z,-2.27
2023-03-03T07:19:36.006Z,-2.33
2023-03-03T07:22:14.881Z,-1.97
2023-03-03T07:24:42.318Z,-2.18
2023-03-03T07:27:37.991Z,-2.30
2023-03-03T07:30:16.174Z,-1.98
2023-03-03T07:32:46.166Z,-1.90
2023-03-03T07:35:47.246Z,-2.17
2023-03-03T07:38:24.603Z,-1.78
2023-03-03T07:40:57.031Z,-2.28
2023-03-03T07:43:31.253Z,-1.83
2023-03-03T07:46:36.418Z,-2.15
2023-03-03T07:49:20.564Z,-1.68
2023-03-03T07:51:47.006Z,-1.94
2023-03-03T07:54:35.149Z,-1.94
2023-03-03T07:57:33.966Z,-2.11
2023-03-03T08:00:20.583Z,-1.67
2023-03-03T08:03:00.531Z,-1.46
2023-03-03T08:05:40.011Z,-1.29
2023-03-03T08:08:09.063Z,-1.58
2023-03-03T08:10:49.107Z,-1.63
2023-03-03T08:13:21.826Z,-1.34
2023-03-03T08:16:02.526Z,-1.76
2023-03-03T08:18:34.384Z,-1.47
2023-03-03T08:21:07.175Z,-1.32
2023-03-03T08:23:33.537Z,-1.53
2023-03-03T08:26:00.052Z,-1.47
2023-03-03T08:28:26.433Z,-1.31
2023-03-03T08:31:02.656Z,-1.16
2023-03-03T08:33:32.578Z,-0.75
2023-03-03T08:35:59.406Z,-1.36
2023-03-03T08:38:26.265Z,-1.04
2023-03-03T08:40:52.673Z,-0.67
2023-03-03T08:43:21.566Z,-0.52
2023-03-03T08:45:49.841Z,-0.82
2023-03-03T08:48:16.763Z,-1.15
2023-03-03T08:50:44.261Z,-1.00
2023-03-03T08:53:12.696Z,-0.91
2023-03-03T08:55:39.574Z,-1.47
2023-03-03T08:58:06.363Z,-0.86
2023-03-03T09:00:32.940Z,-0.61
2023-03-03T09:02:59.315Z,-1.30
2023-03-03T09:05:27.270Z,-1.24
2023-03-03T09:07:55.220Z,-1.10
2023-03-03T09:10:27.490Z,-0.43
2023-03-03T09:12:56.617Z,-0.30
2023-03-03T09:15:25.476Z,-0.34
2023-03-03T09:17:52.347Z,-0.65
2023-03-03T09:20:37.450Z,-0.53
2023-03-03T09:23:34.944Z,-0.56
2023-03-03T09:26:39.013Z,0.23
2023-03-03T09:29:14.500Z,-0.36
2023-03-03T09:31:47.791Z,-0.43
2023-03-03T09:34:42.420Z,-0.21
2023-03-03T09:37:32.416Z,-0.09
2023-03-03T09:39:58.995Z,-0.12
2023-03-03T09:42:42.774Z,0.08
2023-03-03T09:45:40.108Z,-0.22
2023-03-03T09:48:12.653Z,-0.13
2023-03-03T09:50:53.048Z,-0.12
2023-03-03T09:53:33.753Z,0.20
2023-03-03T09:56:30.348Z,0.08
2023-03-03T09:59:31.637Z,0.11
2023-03-03T10:02:16.837Z,-0.03
2023-03-03T10:04:59.995Z,0.46
2023-03-03T10:07:35.614Z,0.45
2023-03-03T10:10:23.789Z,-0.07
2023-03-03T10:13:41.499Z,0.26
2023-03-03T10:16:36.243Z,0.48
2023-03-03T10:19:15.019Z,0.27
2023-03-03T10:22:01.419Z,0.29
2023-03-03T10:24:31.820Z,0.34
2023-03-03T10:27:45.104Z,0.40
2023-03-03T10:30:48.520Z,0.13
2023-03-03T10:33:37.375Z,0.51
2023-03-03T10:36:30.492Z,0.73
2023-03-03T10:39:26.861Z,1.01
2023-03-03T10:42:24.785Z,0.65
2023-03-03T10:44:56.685Z,1.18
2023-03-03T10:47:45.926Z,0.51
2023-03-03T10:50:21.536Z,0.56
2023-03-03T10:53:15.986Z,0.62
2023-03-03T10:55:57.806Z,0.59
2023-03-03T10:58:40.913Z,0.86
2023-03-03T11:01:26.772Z,1.09
2023-03-03T11:04:19.509Z,1.05
2023-03-03T11:07:11.405Z,0.70
2023-03-03T11:09:50.730Z,1.70
2023-03-03T11:12:47.223Z,1.24
2023-03-03T11:15:20.673Z,1.30
2023-03-03T11:18:15.385Z,0.69
2023-03-03T11:21:12.634Z,1.36
2023-03-03T11:24:18.077Z,1.46
2023-03-03T11:27:06.801Z,1.48
2023-03-03T11:29:51.218Z,0.61
2023-03-03T11:32:29.736Z,1.24
2023-03-03T11:35:19.520Z,1.09
2023-03-03T11:38:02.134Z,1.28
2023-03-03T11:40:37.862Z,1.33
2023-03-03T11:43:18.574Z,1.44
2023-03-03T11:45:59.857Z,1.45
2023-03-03T11:48:42.421Z,1.28
2023-03-03T11:51:19.717Z,1.26
2023-03-03T11:53:59.389Z,1.26
2023-03-03T11:56:41.272Z,1.20
2023-03-03T11:59:33.400Z,0.86
2023-03-03T12:02:28.527Z,1.32
2023-03-03T12:05:19.568Z,1.29
2023-03-03T12:08:08.260Z,1.67
2023-03-03T12:11:08.942Z,1.54
2023-03-03T12:14:01.638Z,1.58
2023-03-03T12:16:42.822Z,1.92
2023-03-03T12:19:31.057Z,1.86
2023-03-03T12:22:29.593Z,1.60
2023-03-03T12:25:15.303Z,1.74
2023-03-03T12:27:49.264Z,2.36
2023-03-03T12:30:21.649Z,1.91
2023-03-03T12:33:07.371Z,2.17
2023-03-03T12:35:57.299Z,2.03
2023-03-03T12:38:51.776Z,1.36
2023-03-03T12:41:29.883Z,1.64
2023-03-03T12:44:07.104Z,1.60
2023-03-03T12:46:59.786Z,1.64
2023-03-03T12:49:43.463Z,1.54
2023-03-03T12:52:53.094Z,1.92
2023-03-03T12:55:42.684Z,1.07
2023-03-03T12:58:35.365Z,1.54
2023-03-03T13:01:20.161Z,1.83
2023-03-03T13:03:57.547Z,1.87
2023-03-03T13:06:32.209Z,2.07
2023-03-03T13:09:37.258Z,1.53
2023-03-03T13:12:18.873Z,1.93
2023-03-03T13:15:08.723Z,2.04
2023-03-03T13:18:03.938Z,1.94
2023-03-03T13:20:53.814Z,2.11
2023-03-03T13:23:44.619Z,2.02
2023-03-03T13:26:20.123Z,2.44
2023-03-03T13:28:58.692Z,2.49
2023-03-03T13:31:32.903Z,2.35
2023-03-03T13:34:01.985Z,2.46
2023-03-03T13:36:39.012Z,2.25
2023-03-03T13:39:17.900Z,1.94
2023-03-03T13:41:56.971Z,2.00
2023-03-03T13:44:42.802Z,1.97
2023-03-03T13:47:36.146Z,2.03
2023-03-03T13:50:22.549Z,2.19
2023-03-03T13:53:04.996Z,1.78
2023-03-03T13:55:41.027Z,1.92
2023-03-03T13:58:38.298Z,2.02
2023-03-03T14:01:13.613Z,2.03
2023-03-03T14:03:40.008Z,2.39
2023-03-03T14:06:14.884Z,2.32
2023-03-03T14:09:22.541Z,2.78
2023-03-03T14:12:21.718Z,2.80
2023-03-03T14:14:55.696Z,2.43
2023-03-03T14:17:34.660Z,2.60
2023-03-03T14:20:15.718Z,2.72
2023-03-03T14:22:45.757Z,2.90
2023-03-03T14:25:14.815Z,2.59
2023-03-03T14:27:44.461Z,3.06
2023-03-03T14:30:23.773Z,2.42
2023-03-03T14:33:09.746Z,2.51
2023-03-03T14:35:42.468Z,2.91
2023-03-03T14:38:08.830Z,2.66
2023-03-03T14:40:38.953Z,3.02
2023-03-03T14:43:39.136Z,2.97
2023-03-03T14:46:27.707Z,2.89
2023-03-03T14:48:57.613Z,2.87
2023-03-03T14:51:28.990Z,3.02
2023-03-03T14:53:57.400Z,2.83
2023-03-03T14:56:31.220Z,3.23
2023-03-03T14:59:18.741Z,3.11
2023-03-03T15:01:46.047Z,3.13
2023-03-03T15:04:15.378Z,2.55
2023-03-03T15:06:55.402Z,2.60
2023-03-03T15:09:43.205Z,3.36
2023-03-03T15:12:36.235Z,3.46
2023-03-03T15:15:26.814Z,2.96
2023-03-03T15:17:58.070Z,3.11
2023-03-03T15:20:52.770Z,3.12
2023-03-03T15:23:37.938Z,3.06
2023-03-03T15:26:32.430Z,2.86
2023-03-03T15:29:17.290Z,2.86
2023-03-03T15:32:20.089Z,2.93
2023-03-03T15:35:14.363Z,2.95
2023-03-03T15:37:47.130Z,2.95
2023-03-03T15:40:37.971Z,2.95
2023-03-03T15:43:27.144Z,2.86
2023-03-03T15:46:13.772Z,2.86
2023-03-03T15:48:58.201Z,2.85
2023-03-03T15:51:50.714Z,3.11
2023-03-03T15:54:42.261Z,3.02
2023-03-03T15:57:35.017Z,3.08
2023-03-03T16:00:22.202Z,3.24
2023-03-03T16:02:59.099Z,3.42
2023-03-03T16:05:31.531Z,3.22
2023-03-03T16:08:00.931Z,3.24
2023-03-03T16:11:03.886Z,3.27
2023-03-03T16:14:02.198Z,3.33
2023-03-03T16:16:54.362Z,3.18
2023-03-03T16:19:38.664Z,3.22
2023-03-03T16:22:24.104Z,3.26
2023-03-03T16:25:16.471Z,3.31
2023-03-03T16:28:10.117Z,3.27
2023-03-03T16:31:10.923Z,3.10
2023-03-03T16:33:50.807Z,3.17
2023-03-03T16:36:37.041Z,3.07
2023-03-03T16:39:23.148Z,3.07
2023-03-03T16:42:00.443Z,2.96
2023-03-03T16:44:49.309Z,2.98
2023-03-03T16:47:35.891Z,2.96
2023-03-03T16:50:26.340Z,2.86
2023-03-03T16:53:17.526Z,2.85
2023-03-03T16:56:09.800Z,2.74
2023-03-03T16:58:58.628Z,2.77
2023-03-03T17:01:29.523Z,2.76
2023-03-03T17:04:00.707Z,2.79
2023-03-03T17:06:36.514Z,2.68
2023-03-03T17:09:32.218Z,2.69
2023-03-03T17:12:25.870Z,2.66
2023-03-03T17:15:22.197Z,2.68
2023-03-03T17:18:00.500Z,2.59
2023-03-03T17:20:46.048Z,2.57
2023-03-03T17:23:41.310Z,2.61
2023-03-03T17:26:30.745Z,2.58
2023-03-03T17:29:15.269Z,2.58
2023-03-03T17:32:08.440Z,2.56
2023-03-03T17:34:47.987Z,2.64
2023-03-03T17:37:44.065Z,2.81
2023-03-03T17:40:35.827Z,2.87
2023-03-03T17:43:29.636Z,2.96
2023-03-03T17:46:02.113Z,2.94
2023-03-03T17:49:08.586Z,2.97
2023-03-03T17:51:51.516Z,3.01
2023-03-03T17:54:31.932Z,3.05
2023-03-03T17:57:28.056Z,2.94
2023-03-03T18:00:14.962Z,3.02
2023-03-03T18:03:12.587Z,3.00
2023-03-03T18:05:50.739Z,3.09
2023-03-03T18:09:01.987Z,3.01
2023-03-03T18:12:18.301Z,3.03
2023-03-03T18:15:12.008Z,3.02
2023-03-03T18:18:05.478Z,2.95
2023-03-03T18:20:47.028Z,3.04
2023-03-03T18:23:41.750Z,3.01
2023-03-03T18:26:41.217Z,3.05
2023-03-03T18:29:16.606Z,3.05
2023-03-03T18:31:51.904Z,3.02
2023-03-03T18:34:21.209Z,2.97
2023-03-03T18:36:55.644Z,2.98
2023-03-03T18:39:41.037Z,3.01
2023-03-03T18:42:16.162Z,3.01
2023-03-03T18:44:44.057Z,2.97
2023-03-03T18:47:11.261Z,2.94
2023-03-03T18:49:52.697Z,2.98
2023-03-03T18:52:30.082Z,2.95
2023-03-03T18:55:24.194Z,2.92
2023-03-03T18:58:28.622Z,2.90
2023-03-03T19:01:30.396Z,2.92
2023-03-03T19:04:09.894Z,2.79
2023-03-03T19:06:36.178Z,2.77
2023-03-03T19:09:03.903Z,2.79
2023-03-03T19:11:40.763Z,2.79
2023-03-03T19:14:29.589Z,2.75
2023-03-03T19:16:58.510Z,2.74
2023-03-03T19:19:34.333Z,2.80
2023-03-03T19:22:27.189Z,2.75
2023-03-03T19:25:08.805Z,2.78
2023-03-03T19:28:11.197Z,2.84
2023-03-03T19:30:55.853Z,2.75
2023-03-03T19:33:56.759Z,2.79
2023-03-03T19:36:47.292Z,2.76
2023-03-03T19:39:26.436Z,2.76
2023-03-03T19:42:28.085Z,2.88
2023-03-03T19:45:15.154Z,2.90
2023-03-03T19:48:04.476Z,2.92
2023-03-03T19:50:45.798Z,2.92
2023-03-03T19:53:24.971Z,2.93
2023-03-03T19:56:07.014Z,2.91
2023-03-03T19:58:45.647Z,2.97
2023-03-03T20:01:49.398Z,2.98
2023-03-03T20:04:31.403Z,2.96
2023-03-03T20:07:16.103Z,2.92
2023-03-03T20:09:52.033Z,2.96
2023-03-03T20:12:50.587Z,2.98
2023-03-03T20:15:28.366Z,2.91
2023-03-03T20:18:34.912Z,2.97
2023-03-03T20:21:12.101Z,2.94
2023-03-03T20:24:16.336Z,2.87
2023-03-03T20:27:13.986Z,2.86
2023-03-03T20:29:51.406Z,2.88
2023-03-03T20:33:08.056Z,2.92
2023-03-03T20:35:40.513Z,2.91
2023-03-03T20:38:18.336Z,2.98
2023-03-03T20:41:06.045Z,2.92
2023-03-03T20:43:57.186Z,2.88
2023-03-03T20:46:30.404Z,2.83
2023-03-03T20:49:27.594Z,2.91
2023-03-03T20:52:19.210Z,2.91
2023-03-03T20:55:17.514Z,2.89
2023-03-03T20:57:53.053Z,2.85
2023-03-03T21:00:43.909Z,2.85
2023-03-03T21:03:37.373Z,2.79
2023-03-03T21:06:15.454Z,2.86
2023-03-03T21:08:55.055Z,2.76
2023-03-03T21:11:43.266Z,2.83
2023-03-03T21:14:26.533Z,2.80
2023-03-03T21:16:58.332Z,2.70
2023-03-03T21:19:27.632Z,2.61
2023-03-03T21:21:55.414Z,2.60
2023-03-03T21:24:22.603Z,2.71
2023-03-03T21:26:59.918Z,2.68
2023-03-03T21:29:27.563Z,2.64
2023-03-03T21:31:58.710Z,2.61
2023-03-03T21:34:34.246Z,2.65
2023-03-03T21:37:05.537Z,2.62
2023-03-03T21:39:37.530Z,2.63
2023-03-03T21:42:09.225Z,2.53
2023-03-03T21:44:44.634Z,2.50
2023-03-03T21:47:14.662Z,2.57
2023-03-03T21:49:46.002Z,2.53
2023-03-03T21:52:14.937Z,2.46
2023-03-03T21:54:41.280Z,2.48
2023-03-03T21:57:07.658Z,2.58
2023-03-03T21:59:34.022Z,2.60
2023-03-03T22:02:00.486Z,2.53
2023-03-03T22:04:26.875Z,2.47
2023-03-03T22:06:53.243Z,2.48
2023-03-03T22:09:19.674Z,2.40
2023-03-03T22:11:46.527Z,2.49
2023-03-03T22:14:13.140Z,2.39
2023-03-03T22:16:39.619Z,2.49
2023-03-03T22:19:09.086Z,2.45
2023-03-03T22:21:36.698Z,2.39
2023-03-03T22:24:04.059Z,2.44
2023-03-03T22:26:30.421Z,2.54
2023-03-03T22:28:56.808Z,2.74
2023-03-03T22:31:23.233Z,2.64
2023-03-03T22:33:49.643Z,2.51
2023-03-03T22:36:16.379Z,2.39
2023-03-03T22:38:42.889Z,2.39
2023-03-03T22:41:09.309Z,2.27
2023-03-03T22:43:35.665Z,2.33
2023-03-03T22:46:02.075Z,2.29
2023-03-03T22:48:29.179Z,2.24
2023-03-03T22:50:55.590Z,2.18
2023-03-03T22:53:22.304Z,2.19
2023-03-03T22:55:48.787Z,2.08
2023-03-03T22:58:19.665Z,2.06
2023-03-03T23:00:47.577Z,2.05
2023-03-03T23:03:14.251Z,1.86
2023-03-03T23:05:40.963Z,1.83
2023-03-03T23:08:10.249Z,1.76
2023-03-03T23:10:36.696Z,1.67
2023-03-03T23:13:03.064Z,1.59
2023-03-03T23:15:29.682Z,1.52
2023-03-03T23:17:56.059Z,1.49
2023-03-03T23:20:28.200Z,1.45
2023-03-03T23:22:54.985Z,1.49
2023-03-03T23:25:25.018Z,1.32
2023-03-03T23:27:52.218Z,1.25
2023-03-03T23:30:20.443Z,1.30
2023-03-03T23:32:47.764Z,1.22
2023-03-03T23:35:14.657Z,1.26
2023-03-03T23:37:41.029Z,1.11
2023-03-03T23:40:08.802Z,1.03
2023-03-03T23:42:35.161Z,1.06
2023-03-03T23:45:01.596Z,0.98
2023-03-03T23:47:27.972Z,0.99
2023-03-03T23:49:54.345Z,0.92
2023-03-03T23:52:20.704Z,0.87
2023-03-03T23:54:47.063Z,0.88
2023-03-03T23:57:14.391Z,0.86
2023-03-03T23:59:40.790Z,0.84
